Time;durP1;ratioP1;P1;durP2;ratioP2;P2;SDS_P1;SDS_P2;PMS_P1;PMS_P2;Temp;Humidity;BMP_temperature;BMP_pressure;BME280_temperature;BME280_humidity;BME280_pressure;Samples;Min_cycle;Max_cycle;Signal;HPM_P1;HPM_P2
2023/03/16 00:00:42;;;;;;;9.10;3.80;;;1.00;94.50;;;;;;5006760;28;20492;-54
2023/03/16 00:03:10;;;;;;;5.90;3.80;;;1.00;95.10;;;;;;5007292;28;20547;-57
2023/03/16 00:05:35;;;;;;;7.47;4.10;;;0.90;95.70;;;;;;5005126;28;20175;-55
2023/03/16 00:08:01;;;;;;;7.50;4.30;;;0.90;96.40;;;;;;5001573;28;20444;-57
2023/03/16 00:10:27;;;;;;;7.70;4.30;;;0.90;97.00;;;;;;5009016;28;20184;-57
2023/03/16 00:12:53;;;;;;;7.90;4.10;;;0.90;97.30;;;;;;5004211;28;20211;-54
2023/03/16 00:15:19;;;;;;;12.50;3.80;;;0.90;97.00;;;;;;5007665;28;20187;-54
2023/03/16 00:17:47;;;;;;;6.50;4.90;;;0.90;96.60;;;;;;5007819;28;20430;-55
2023/03/16 00:20:13;;;;;;;6.63;3.80;;;0.90;96.50;;;;;;5005525;28;20671;-54
2023/03/16 00:22:40;;;;;;;9.90;3.60;;;0.80;96.70;;;;;;5003428;28;20535;-55
2023/03/16 00:25:07;;;;;;;7.30;3.87;;;0.80;96.80;;;;;;5001159;28;20458;-54
2023/03/16 00:27:33;;;;;;;11.03;4.10;;;0.80;97.30;;;;;;5010371;28;20510;-53
2023/03/16 00:30:02;;;;;;;7.77;3.90;;;0.80;97.10;;;;;;5010268;28;20536;-53
2023/03/16 00:32:36;;;;;;;4.07;3.30;;;0.80;97.40;;;;;;5009100;28;20238;-51
2023/03/16 00:35:03;;;;;;;6.10;3.70;;;0.70;97.60;;;;;;5008159;28;20434;-54
2023/03/16 00:37:31;;;;;;;7.27;3.73;;;0.70;97.70;;;;;;5009390;28;20484;-53
2023/03/16 00:39:57;;;;;;;5.43;3.67;;;0.70;97.90;;;;;;5009980;28;20466;-53
2023/03/16 00:42:28;;;;;;;4.90;3.53;;;0.70;98.20;;;;;;5003920;28;20503;-55
2023/03/16 00:44:57;;;;;;;4.57;3.60;;;0.60;98.40;;;;;;5010238;28;20419;-53
2023/03/16 00:47:27;;;;;;;5.57;3.60;;;0.60;98.30;;;;;;5008253;28;20444;-54
2023/03/16 00:49:54;;;;;;;5.77;3.87;;;0.60;98.60;;;;;;5008618;28;20847;-53
2023/03/16 00:52:21;;;;;;;8.00;3.90;;;0.60;98.90;;;;;;5007708;28;21046;-54
2023/03/16 00:54:47;;;;;;;6.57;3.67;;;0.60;99.60;;;;;;5009070;28;20461;-55
2023/03/16 00:57:17;;;;;;;5.67;3.70;;;0.50;99.60;;;;;;5009384;28;20430;-54
2023/03/16 00:59:46;;;;;;;6.30;3.43;;;0.50;99.60;;;;;;5004297;28;20474;-55
2023/03/16 01:02:13;;;;;;;8.03;4.07;;;0.50;99.60;;;;;;5005099;28;20546;-56
2023/03/16 01:04:40;;;;;;;7.23;4.23;;;0.50;99.70;;;;;;5008517;28;20480;-54
2023/03/16 01:07:12;;;;;;;4.73;3.73;;;0.50;99.90;;;;;;5004798;28;20440;-57
2023/03/16 01:09:41;;;;;;;7.90;4.90;;;0.50;99.90;;;;;;5006910;28;20430;-54
2023/03/16 01:12:10;;;;;;;8.60;4.40;;;0.50;99.80;;;;;;5010847;28;20461;-56
2023/03/16 01:14:36;;;;;;;10.50;4.70;;;0.50;99.90;;;;;;5004799;28;20441;-55
2023/03/16 01:17:04;;;;;;;7.73;4.10;;;0.40;99.90;;;;;;5007315;28;20439;-56
2023/03/16 01:19:34;;;;;;;7.37;4.60;;;0.40;99.90;;;;;;5007457;28;21007;-55
2023/03/16 01:22:01;;;;;;;5.83;3.60;;;0.30;99.90;;;;;;5008390;28;20476;-54
2023/03/16 01:24:27;;;;;;;6.63;4.00;;;0.30;99.90;;;;;;5008319;28;20437;-55
2023/03/16 01:26:53;;;;;;;5.40;3.53;;;0.30;99.90;;;;;;5009353;28;20470;-55
2023/03/16 01:29:18;;;;;;;5.33;3.47;;;0.30;99.90;;;;;;5008644;28;20453;-56
2023/03/16 01:31:44;;;;;;;5.80;3.30;;;0.30;99.90;;;;;;5008803;28;20447;-57
2023/03/16 01:34:15;;;;;;;7.50;4.10;;;0.30;99.90;;;;;;5005045;28;20206;-56
2023/03/16 01:36:43;;;;;;;6.80;3.50;;;0.30;99.90;;;;;;5008066;28;20182;-55
2023/03/16 01:39:10;;;;;;;5.90;3.63;;;0.30;99.90;;;;;;5008124;28;20489;-53
2023/03/16 01:41:35;;;;;;;4.13;3.40;;;0.20;99.90;;;;;;5000092;28;20623;-54
2023/03/16 01:44:01;;;;;;;12.10;3.50;;;0.20;99.90;;;;;;5008275;28;21077;-54
2023/03/16 01:46:28;;;;;;;5.17;3.83;;;0.20;99.90;;;;;;5009584;28;20657;-54
2023/03/16 01:48:56;;;;;;;6.03;3.63;;;0.20;99.90;;;;;;5008001;28;20178;-56
2023/03/16 01:51:34;;;;;;;6.50;3.77;;;0.10;99.90;;;;;;4999946;28;20452;-57
2023/03/16 01:54:14;;;;;;;5.83;3.37;;;0.10;99.90;;;;;;5005523;28;20427;-57
2023/03/16 01:56:58;;;;;;;5.30;3.90;;;0.10;99.90;;;;;;5006970;28;20520;-55
2023/03/16 01:59:30;;;;;;;5.47;3.20;;;0.10;99.90;;;;;;5003373;28;20505;-56
2023/03/16 02:01:56;;;;;;;7.00;3.80;;;0.00;99.90;;;;;;5005893;28;20462;-56
2023/03/16 02:04:24;;;;;;;7.13;3.70;;;0.00;99.90;;;;;;5009727;28;20410;-53
2023/03/16 02:06:52;;;;;;;4.33;3.30;;;0.10;99.90;;;;;;5001662;28;20180;-56
2023/03/16 02:09:18;;;;;;;5.33;3.63;;;0.10;99.90;;;;;;5007114;28;20906;-56
2023/03/16 02:11:44;;;;;;;5.03;3.13;;;0.00;99.90;;;;;;5007867;28;20483;-53
2023/03/16 02:14:11;;;;;;;3.00;2.73;;;0.00;99.90;;;;;;5009218;28;20433;-57
2023/03/16 02:16:38;;;;;;;4.80;3.40;;;0.00;99.90;;;;;;5002494;28;20442;-55
2023/03/16 02:19:11;;;;;;;12.03;3.03;;;0.00;99.90;;;;;;5008593;28;20572;-54
2023/03/16 02:21:48;;;;;;;7.10;3.77;;;0.00;99.90;;;;;;5008598;28;20902;-56
2023/03/16 02:24:13;;;;;;;8.33;4.23;;;0.00;99.90;;;;;;5003736;28;21092;-53
2023/03/16 02:27:03;;;;;;;3.60;3.10;;;0.00;99.90;;;;;;5008476;28;20464;-55
2023/03/16 02:29:41;;;;;;;7.13;3.70;;;-0.10;99.90;;;;;;5009352;28;20213;-56
2023/03/16 02:32:08;;;;;;;4.00;3.00;;;-0.10;99.90;;;;;;5003404;28;20872;-55
2023/03/16 02:34:34;;;;;;;4.73;2.80;;;-0.10;99.90;;;;;;5006728;28;20479;-54
2023/03/16 02:37:01;;;;;;;3.53;2.83;;;-0.10;99.90;;;;;;5005674;28;20430;-54
2023/03/16 02:39:26;;;;;;;8.70;3.00;;;-0.10;99.90;;;;;;5007548;28;20468;-53
2023/03/16 02:41:52;;;;;;;5.20;3.50;;;-0.20;99.90;;;;;;5000879;28;21055;-55
2023/03/16 02:44:27;;;;;;;9.40;3.33;;;-0.20;99.90;;;;;;5006131;28;20178;-55
2023/03/16 02:47:01;;;;;;;3.80;2.90;;;-0.20;99.90;;;;;;5005401;28;21104;-54
2023/03/16 02:49:38;;;;;;;3.93;3.30;;;-0.20;99.90;;;;;;5007721;28;20439;-54
2023/03/16 02:52:05;;;;;;;3.23;2.90;;;-0.20;99.90;;;;;;5005584;28;20461;-53
2023/03/16 02:54:31;;;;;;;6.00;3.40;;;-0.20;99.90;;;;;;5006300;28;20878;-52
2023/03/16 02:56:56;;;;;;;9.43;3.10;;;-0.20;99.90;;;;;;5003385;28;20471;-55
2023/03/16 02:59:22;;;;;;;4.50;3.07;;;-0.20;99.90;;;;;;5001267;28;20213;-59
2023/03/16 03:01:47;;;;;;;5.00;3.63;;;-0.20;99.90;;;;;;5012942;28;20253;-52
2023/03/16 03:04:13;;;;;;;4.87;2.80;;;-0.20;99.90;;;;;;5004190;28;20281;-53
2023/03/16 03:06:39;;;;;;;7.93;3.80;;;-0.20;99.90;;;;;;5015250;28;20650;-55
2023/03/16 03:09:06;;;;;;;4.90;3.60;;;-0.30;99.90;;;;;;5008777;28;20190;-55
2023/03/16 03:11:32;;;;;;;4.70;3.50;;;-0.30;99.90;;;;;;5007301;28;20297;-52
2023/03/16 03:13:57;;;;;;;8.37;3.63;;;-0.30;99.90;;;;;;4999850;28;20995;-52
2023/03/16 03:16:23;;;;;;;5.20;3.10;;;-0.30;99.90;;;;;;5002159;28;20199;-56
2023/03/16 03:18:51;;;;;;;5.47;3.13;;;-0.30;99.90;;;;;;5006288;28;20206;-56
2023/03/16 03:21:17;;;;;;;4.83;3.40;;;-0.30;99.90;;;;;;5003661;28;20214;-57
2023/03/16 03:23:45;;;;;;;5.03;3.20;;;-0.30;99.90;;;;;;5012182;28;20418;-54
2023/03/16 03:26:13;;;;;;;7.27;4.13;;;-0.30;99.90;;;;;;5008180;28;20861;-55
2023/03/16 03:28:38;;;;;;;4.27;3.50;;;-0.40;99.90;;;;;;5006291;28;20981;-54
2023/03/16 03:31:04;;;;;;;5.97;3.47;;;-0.40;99.90;;;;;;5005924;28;20430;-55
2023/03/16 03:33:32;;;;;;;5.60;3.23;;;-0.40;99.90;;;;;;5000084;28;20749;-56
2023/03/16 03:35:58;;;;;;;7.10;3.60;;;-0.40;99.90;;;;;;4999220;28;20686;-54
2023/03/16 03:38:25;;;;;;;7.47;4.00;;;-0.50;99.90;;;;;;5000467;28;20481;-55
2023/03/16 03:40:51;;;;;;;6.33;3.50;;;-0.50;99.90;;;;;;5002309;28;20510;-54
2023/03/16 03:43:17;;;;;;;5.30;3.90;;;-0.50;99.90;;;;;;4996280;28;20510;-53
2023/03/16 03:45:43;;;;;;;6.17;3.50;;;-0.50;99.90;;;;;;5007836;28;20516;-53
2023/03/16 03:48:08;;;;;;;5.00;4.00;;;-0.50;99.90;;;;;;5004435;28;20179;-54
2023/03/16 03:50:34;;;;;;;13.83;4.47;;;-0.50;99.90;;;;;;5002506;28;20190;-60
2023/03/16 03:52:59;;;;;;;9.17;4.23;;;-0.50;99.90;;;;;;5001846;28;20199;-55
2023/03/16 03:55:25;;;;;;;7.73;3.67;;;-0.50;99.90;;;;;;5004138;28;20264;-54
2023/03/16 03:57:51;;;;;;;6.40;3.97;;;-0.50;99.90;;;;;;5008332;28;20529;-53
2023/03/16 04:00:19;;;;;;;7.53;4.13;;;-0.50;99.90;;;;;;5006740;28;20729;-57
2023/03/16 04:02:46;;;;;;;5.83;3.80;;;-0.50;99.90;;;;;;5001455;28;20272;-53
2023/03/16 04:05:11;;;;;;;6.10;3.40;;;-0.50;99.90;;;;;;5004156;28;20514;-54
2023/03/16 04:07:37;;;;;;;7.10;3.60;;;-0.60;99.90;;;;;;5003504;28;22254;-57
2023/03/16 04:10:04;;;;;;;7.20;3.77;;;-0.50;99.90;;;;;;5002401;28;20178;-55
2023/03/16 04:12:30;;;;;;;3.93;3.43;;;-0.60;99.90;;;;;;5022597;28;20489;-53
2023/03/16 04:14:55;;;;;;;14.97;4.10;;;-0.60;99.90;;;;;;5008838;28;20464;-53
2023/03/16 04:17:22;;;;;;;11.80;3.57;;;-0.60;99.90;;;;;;5012006;28;20588;-56
2023/03/16 04:19:48;;;;;;;11.43;3.83;;;-0.70;99.90;;;;;;5009044;28;20667;-53
2023/03/16 04:22:13;;;;;;;5.10;3.77;;;-0.70;99.90;;;;;;5007358;28;20476;-53
2023/03/16 04:24:41;;;;;;;5.90;3.40;;;-0.70;99.90;;;;;;5005646;28;20808;-55
2023/03/16 04:27:08;;;;;;;8.90;3.40;;;-0.70;99.90;;;;;;5002607;28;20233;-57
2023/03/16 04:29:34;;;;;;;4.00;3.60;;;-0.70;99.90;;;;;;5007160;28;20456;-54
2023/03/16 04:31:59;;;;;;;4.00;3.40;;;-0.70;99.90;;;;;;5011502;28;20966;-53
2023/03/16 04:34:25;;;;;;;4.70;3.57;;;-0.70;99.90;;;;;;5005470;28;20183;-54
2023/03/16 04:36:51;;;;;;;5.40;3.50;;;-0.70;99.90;;;;;;5007819;28;20184;-54
2023/03/16 04:39:18;;;;;;;7.80;4.47;;;-0.70;99.90;;;;;;5013302;28;20480;-54
2023/03/16 04:41:43;;;;;;;5.60;4.33;;;-0.70;99.90;;;;;;5001822;28;21131;-54
2023/03/16 04:44:09;;;;;;;11.80;6.27;;;-0.70;99.90;;;;;;5017688;28;20428;-55
2023/03/16 04:46:35;;;;;;;11.07;4.23;;;-0.70;99.90;;;;;;5020546;28;20177;-55
2023/03/16 04:49:01;;;;;;;8.67;4.27;;;-0.70;99.90;;;;;;5007762;28;20709;-53
2023/03/16 04:51:27;;;;;;;6.90;4.10;;;-0.80;99.90;;;;;;5006998;28;20671;-53
2023/03/16 04:53:53;;;;;;;5.63;3.90;;;-0.80;99.90;;;;;;5005072;28;21032;-54
2023/03/16 04:56:19;;;;;;;4.67;3.47;;;-0.80;99.90;;;;;;4998927;28;20444;-56
2023/03/16 04:58:46;;;;;;;6.30;3.27;;;-0.80;99.90;;;;;;5001978;28;20461;-57
2023/03/16 05:01:13;;;;;;;5.67;3.73;;;-0.80;99.90;;;;;;5004183;28;20869;-58
2023/03/16 05:03:38;;;;;;;4.47;4.07;;;-0.80;99.90;;;;;;4996087;28;20524;-54
2023/03/16 05:06:04;;;;;;;3.80;3.30;;;-0.80;99.90;;;;;;4996660;28;20476;-56
2023/03/16 05:08:30;;;;;;;5.90;3.40;;;-0.90;99.90;;;;;;4998148;28;20441;-56
2023/03/16 05:10:57;;;;;;;8.93;3.60;;;-0.90;99.90;;;;;;5000205;28;20179;-52
2023/03/16 05:13:22;;;;;;;5.30;3.97;;;-1.00;99.90;;;;;;5005276;28;20473;-56
2023/03/16 05:15:48;;;;;;;9.67;4.60;;;-1.00;99.90;;;;;;5004848;28;20852;-52
2023/03/16 05:18:14;;;;;;;6.97;5.10;;;-1.10;99.90;;;;;;5003339;28;20265;-56
2023/03/16 05:20:41;;;;;;;6.33;5.10;;;-1.10;99.90;;;;;;5002097;28;20529;-54
2023/03/16 05:23:07;;;;;;;8.37;6.00;;;-1.10;99.90;;;;;;5005276;28;20290;-56
2023/03/16 05:25:33;;;;;;;6.40;4.80;;;-1.00;99.90;;;;;;4991326;28;20430;-57
2023/03/16 05:27:59;;;;;;;6.07;5.20;;;-1.00;99.90;;;;;;5003828;28;20979;-54
2023/03/16 05:30:25;;;;;;;11.00;4.50;;;-1.10;99.90;;;;;;5003110;28;20490;-57
2023/03/16 05:32:51;;;;;;;5.27;4.47;;;-1.10;99.90;;;;;;4998698;28;20452;-56
2023/03/16 05:35:17;;;;;;;6.83;4.30;;;-1.10;99.90;;;;;;4997166;28;20433;-56
2023/03/16 05:37:43;;;;;;;9.17;4.20;;;-1.10;99.90;;;;;;4995781;28;20437;-57
2023/03/16 05:40:17;;;;;;;8.00;4.97;;;-1.10;99.90;;;;;;4990140;28;20215;-53
2023/03/16 05:42:45;;;;;;;12.17;7.60;;;-1.10;99.90;;;;;;4998467;28;20509;-54
2023/03/16 05:45:13;;;;;;;9.60;7.97;;;-1.10;99.90;;;;;;5003784;28;20457;-57
2023/03/16 05:47:39;;;;;;;8.83;6.83;;;-1.10;99.90;;;;;;4997575;28;20453;-55
2023/03/16 05:50:07;;;;;;;16.77;6.47;;;-1.10;99.90;;;;;;5006656;28;20449;-56
2023/03/16 05:52:33;;;;;;;10.70;6.43;;;-1.10;99.90;;;;;;5000658;28;20462;-56
2023/03/16 05:54:59;;;;;;;7.07;5.30;;;-1.10;99.90;;;;;;4998200;28;20430;-55
2023/03/16 05:57:25;;;;;;;9.77;5.63;;;-1.10;99.90;;;;;;5006703;28;20198;-55
2023/03/16 05:59:51;;;;;;;9.67;5.77;;;-1.10;99.90;;;;;;5012617;28;20295;-54
2023/03/16 06:02:17;;;;;;;8.73;5.90;;;-1.10;99.90;;;;;;5008032;28;20257;-55
2023/03/16 06:04:43;;;;;;;9.27;5.70;;;-1.00;99.90;;;;;;5004662;28;20437;-54
2023/03/16 06:07:09;;;;;;;10.70;6.57;;;-1.10;99.90;;;;;;5008099;28;20440;-55
2023/03/16 06:09:35;;;;;;;10.47;5.50;;;-1.00;99.90;;;;;;5007285;28;20623;-54
2023/03/16 06:12:01;;;;;;;10.67;6.03;;;-1.00;99.90;;;;;;5001888;28;20461;-54
2023/03/16 06:14:27;;;;;;;11.30;5.97;;;-1.10;99.90;;;;;;5010619;28;20443;-52
2023/03/16 06:16:52;;;;;;;8.20;5.60;;;-1.00;99.90;;;;;;5000787;28;20719;-53
2023/03/16 06:19:18;;;;;;;11.37;6.40;;;-1.00;99.90;;;;;;5003906;28;20468;-55
2023/03/16 06:21:43;;;;;;;12.50;5.87;;;-1.00;99.90;;;;;;5008766;28;20221;-52
2023/03/16 06:24:09;;;;;;;9.10;6.00;;;-1.00;99.90;;;;;;5007221;28;20217;-55
2023/03/16 06:26:36;;;;;;;9.03;6.00;;;-1.00;99.90;;;;;;5005103;28;20188;-53
2023/03/16 06:29:02;;;;;;;15.17;7.20;;;-1.00;99.90;;;;;;5006135;28;20583;-53
2023/03/16 06:31:28;;;;;;;14.20;7.30;;;-0.90;99.90;;;;;;5001961;28;20464;-55
2023/03/16 06:33:54;;;;;;;23.33;7.80;;;-0.90;99.90;;;;;;5006823;28;20833;-55
2023/03/16 06:36:20;;;;;;;18.97;8.43;;;-0.90;99.90;;;;;;5006306;28;20441;-53
2023/03/16 06:38:45;;;;;;;17.43;7.77;;;-0.80;99.90;;;;;;5004163;28;20194;-54
2023/03/16 06:41:11;;;;;;;14.00;7.40;;;-0.70;99.90;;;;;;5008367;28;20490;-56
2023/03/16 06:43:37;;;;;;;12.57;7.00;;;-0.70;99.90;;;;;;5001212;28;20180;-57
2023/03/16 06:46:03;;;;;;;10.67;7.00;;;-0.60;99.90;;;;;;5001840;28;20181;-55
2023/03/16 06:48:28;;;;;;;14.33;6.40;;;-0.60;99.90;;;;;;5004393;28;20269;-54
2023/03/16 06:50:54;;;;;;;8.80;5.77;;;-0.50;99.90;;;;;;5010491;28;20197;-53
2023/03/16 06:53:20;;;;;;;9.37;5.90;;;-0.50;99.90;;;;;;5003246;28;20182;-54
2023/03/16 06:55:47;;;;;;;8.43;5.23;;;-0.40;99.90;;;;;;5005911;28;20364;-55
2023/03/16 06:58:12;;;;;;;10.73;5.57;;;-0.30;99.90;;;;;;5006006;28;20829;-54
2023/03/16 07:00:38;;;;;;;6.87;5.20;;;-0.20;99.90;;;;;;5001955;28;20445;-54
2023/03/16 07:03:04;;;;;;;9.13;5.80;;;-0.20;99.90;;;;;;5004703;28;20200;-54
2023/03/16 07:05:30;;;;;;;8.80;5.60;;;-0.10;99.90;;;;;;5005343;28;20189;-54
2023/03/16 07:07:56;;;;;;;12.63;7.10;;;0.00;99.90;;;;;;5003802;28;20197;-55
2023/03/16 07:10:22;;;;;;;13.53;6.30;;;0.10;99.90;;;;;;4999786;28;20429;-54
2023/03/16 07:12:49;;;;;;;9.30;6.20;;;0.20;99.90;;;;;;5001985;28;20268;-56
2023/03/16 07:15:14;;;;;;;12.70;6.80;;;0.30;99.90;;;;;;5004790;28;20999;-55
2023/03/16 07:17:41;;;;;;;11.40;6.67;;;0.40;99.90;;;;;;5017190;28;20513;-56
2023/03/16 07:20:09;;;;;;;10.10;5.97;;;0.50;99.90;;;;;;5001131;28;20215;-54
2023/03/16 07:22:36;;;;;;;12.27;6.30;;;0.50;99.90;;;;;;5008870;28;20547;-55
2023/03/16 07:25:03;;;;;;;10.20;6.17;;;0.60;99.90;;;;;;5006435;28;20433;-56
2023/03/16 07:27:28;;;;;;;16.20;8.47;;;0.70;99.90;;;;;;5006773;28;20448;-55
2023/03/16 07:29:54;;;;;;;16.40;8.53;;;0.80;99.90;;;;;;5005897;28;20788;-54
2023/03/16 07:32:21;;;;;;;14.33;7.93;;;0.90;99.90;;;;;;5003341;28;20213;-55
2023/03/16 07:34:47;;;;;;;12.67;7.87;;;0.90;99.90;;;;;;5007520;28;20265;-55
2023/03/16 07:37:14;;;;;;;16.30;9.33;;;1.00;99.90;;;;;;5004236;28;20449;-55
2023/03/16 07:39:40;;;;;;;19.67;9.70;;;1.10;99.90;;;;;;5004638;28;21120;-55
2023/03/16 07:42:06;;;;;;;22.10;9.37;;;1.20;99.90;;;;;;5002357;28;20462;-55
2023/03/16 07:44:32;;;;;;;18.43;10.23;;;1.20;99.90;;;;;;5004182;28;20864;-56
2023/03/16 07:46:58;;;;;;;17.10;8.57;;;1.30;99.90;;;;;;5006518;28;20526;-55
2023/03/16 07:49:24;;;;;;;15.63;7.60;;;1.30;99.90;;;;;;4999931;28;21865;-54
2023/03/16 07:51:50;;;;;;;16.30;7.70;;;1.40;99.90;;;;;;5006225;28;20291;-54
2023/03/16 07:54:16;;;;;;;15.77;8.87;;;1.50;99.90;;;;;;5006681;28;20198;-55
2023/03/16 07:56:41;;;;;;;18.13;8.40;;;1.50;99.90;;;;;;5010159;28;20879;-55
2023/03/16 07:59:07;;;;;;;15.27;8.20;;;1.60;99.90;;;;;;5008892;28;20207;-56
2023/03/16 08:01:33;;;;;;;22.00;10.13;;;1.70;99.90;;;;;;5003706;28;20566;-54
2023/03/16 08:04:00;;;;;;;17.20;8.73;;;1.80;99.90;;;;;;5005835;28;20507;-53
2023/03/16 08:06:27;;;;;;;19.57;9.67;;;1.90;99.90;;;;;;5003567;28;20183;-56
2023/03/16 08:08:53;;;;;;;17.27;8.37;;;1.90;99.90;;;;;;5004886;28;20465;-55
2023/03/16 08:11:22;;;;;;;14.00;8.07;;;2.00;99.90;;;;;;5008452;28;20970;-54
2023/03/16 08:13:55;;;;;;;11.60;7.13;;;2.10;99.90;;;;;;4998812;28;20934;-55
2023/03/16 08:16:22;;;;;;;10.90;8.10;;;2.20;99.90;;;;;;5011701;28;20442;-55
2023/03/16 08:18:49;;;;;;;14.43;8.50;;;2.30;99.90;;;;;;5009191;28;20953;-54
2023/03/16 08:21:16;;;;;;;14.20;7.20;;;2.40;99.90;;;;;;4996347;28;20482;-56
2023/03/16 08:23:47;;;;;;;13.03;7.70;;;2.50;99.90;;;;;;5001732;28;20913;-54
2023/03/16 08:26:14;;;;;;;10.47;7.53;;;2.60;99.00;;;;;;5003797;28;20450;-54
2023/03/16 08:28:40;;;;;;;15.43;7.87;;;2.60;97.80;;;;;;5002221;28;20436;-54
2023/03/16 08:31:06;;;;;;;10.80;7.37;;;2.80;96.10;;;;;;5005082;28;20472;-53
2023/03/16 08:33:33;;;;;;;13.60;7.63;;;2.90;94.50;;;;;;5005135;28;20208;-54
2023/03/16 08:35:59;;;;;;;14.40;7.20;;;2.90;94.50;;;;;;5008648;28;20469;-58
2023/03/16 08:38:24;;;;;;;11.30;6.70;;;3.10;92.70;;;;;;5007433;28;20487;-57
2023/03/16 08:40:51;;;;;;;12.43;6.90;;;3.20;91.30;;;;;;5007388;28;20200;-56
2023/03/16 08:43:18;;;;;;;14.63;7.60;;;3.30;90.30;;;;;;5003301;28;20173;-55
2023/03/16 08:45:47;;;;;;;13.50;7.30;;;3.40;90.80;;;;;;5005052;28;20504;-56
2023/03/16 08:48:13;;;;;;;15.17;6.77;;;3.50;88.10;;;;;;5008757;28;21075;-55
2023/03/16 08:50:43;;;;;;;12.90;7.77;;;3.60;86.20;;;;;;5000939;28;20770;-54
2023/03/16 08:53:10;;;;;;;15.70;7.53;;;3.70;85.70;;;;;;5005635;28;20545;-55
2023/03/16 08:55:36;;;;;;;15.37;8.10;;;3.80;83.50;;;;;;5005097;28;20470;-55
2023/03/16 08:58:02;;;;;;;20.00;7.33;;;3.90;80.70;;;;;;5000975;28;20503;-55
2023/03/16 09:00:28;;;;;;;9.40;6.07;;;4.00;81.40;;;;;;5008211;28;20539;-57
2023/03/16 09:02:54;;;;;;;14.53;7.17;;;4.10;80.70;;;;;;5009055;28;20200;-55
2023/03/16 09:05:22;;;;;;;12.57;6.90;;;4.20;81.10;;;;;;5009190;28;20192;-55
2023/03/16 09:07:47;;;;;;;11.40;6.97;;;4.30;78.10;;;;;;5002895;28;20436;-55
2023/03/16 09:10:14;;;;;;;10.43;7.03;;;4.40;79.00;;;;;;5008933;28;20490;-57
2023/03/16 09:12:41;;;;;;;15.10;7.03;;;4.60;78.60;;;;;;5005138;28;24120;-56
2023/03/16 09:15:09;;;;;;;9.67;5.80;;;4.80;78.20;;;;;;5003706;28;20451;-56
2023/03/16 09:17:35;;;;;;;8.30;5.27;;;4.90;73.50;;;;;;5005296;28;20516;-56
2023/03/16 09:20:01;;;;;;;9.27;5.63;;;5.10;71.50;;;;;;5005463;28;20471;-56
2023/03/16 09:22:27;;;;;;;8.00;5.27;;;5.30;67.70;;;;;;5000219;28;20517;-53
2023/03/16 09:24:53;;;;;;;8.70;6.03;;;5.30;66.10;;;;;;5004506;28;20450;-52
2023/03/16 09:27:19;;;;;;;6.10;4.13;;;5.50;65.30;;;;;;5004711;28;20294;-54
2023/03/16 09:29:45;;;;;;;4.97;3.80;;;5.60;65.50;;;;;;5001768;28;20472;-53
2023/03/16 09:32:11;;;;;;;5.70;3.97;;;5.70;62.30;;;;;;5002675;28;20224;-55
2023/03/16 09:34:38;;;;;;;4.77;4.00;;;5.90;61.60;;;;;;5007446;28;20522;-58
2023/03/16 09:37:04;;;;;;;6.23;3.53;;;6.00;61.10;;;;;;5001149;28;20493;-58
2023/03/16 09:39:30;;;;;;;4.80;2.50;;;6.20;60.00;;;;;;4998741;28;20482;-56
2023/03/16 09:42:20;;;;;;;3.63;3.10;;;6.30;58.70;;;;;;5003999;28;20539;-57
2023/03/16 09:45:05;;;;;;;5.27;2.40;;;6.50;58.60;;;;;;5003808;28;20450;-58
2023/03/16 09:47:34;;;;;;;5.87;2.80;;;6.80;57.10;;;;;;5004307;28;20492;-55
2023/03/16 09:50:05;;;;;;;4.10;2.33;;;6.90;53.30;;;;;;4997366;28;20451;-55
2023/03/16 09:53:01;;;;;;;2.87;2.40;;;7.00;52.60;;;;;;5000286;28;20463;-59
2023/03/16 09:55:32;;;;;;;5.13;2.87;;;7.10;52.70;;;;;;5003798;28;20454;-53
2023/03/16 09:57:59;;;;;;;3.40;2.77;;;7.30;52.80;;;;;;4997432;28;20451;-57
2023/03/16 10:00:39;;;;;;;2.57;2.07;;;7.40;51.60;;;;;;5008081;28;20420;-59
2023/03/16 10:03:13;;;;;;;4.70;2.40;;;7.60;50.60;;;;;;4998698;28;20447;-59
2023/03/16 10:05:39;;;;;;;2.90;2.43;;;7.70;49.00;;;;;;4994938;28;20470;-58
2023/03/16 10:08:20;;;;;;;4.53;2.73;;;7.70;49.30;;;;;;5000293;28;20435;-59
2023/03/16 10:11:11;;;;;;;2.70;2.30;;;7.90;49.40;;;;;;5004834;28;20435;-56
2023/03/16 10:13:41;;;;;;;4.60;2.70;;;8.00;47.20;;;;;;5003237;28;20928;-57
2023/03/16 10:16:14;;;;;;;2.47;2.27;;;8.00;46.60;;;;;;5003156;28;20423;-57
2023/03/16 10:18:47;;;;;;;4.93;2.40;;;8.10;46.80;;;;;;5006456;28;20542;-52
2023/03/16 10:21:17;;;;;;;2.63;2.20;;;8.10;46.60;;;;;;5006251;28;20455;-53
2023/03/16 10:23:44;;;;;;;2.60;2.13;;;8.20;46.40;;;;;;5004565;28;20459;-55
2023/03/16 10:26:14;;;;;;;4.03;2.40;;;8.40;46.70;;;;;;5001300;28;20471;-55
2023/03/16 10:28:41;;;;;;;3.70;3.10;;;8.50;46.80;;;;;;5005125;28;20518;-55
2023/03/16 10:31:10;;;;;;;3.90;2.60;;;8.60;46.60;;;;;;5004979;28;20534;-56
2023/03/16 10:33:36;;;;;;;3.90;2.53;;;8.80;46.40;;;;;;5003843;28;20538;-56
2023/03/16 10:36:29;;;;;;;4.13;2.73;;;8.90;46.30;;;;;;5005415;28;20545;-56
2023/03/16 10:39:15;;;;;;;4.07;2.80;;;9.10;46.80;;;;;;5003355;28;20602;-55
2023/03/16 10:41:53;;;;;;;6.23;2.80;;;9.20;46.00;;;;;;5000955;28;20986;-57
2023/03/16 10:44:24;;;;;;;4.57;3.17;;;9.40;46.00;;;;;;5006327;28;20431;-57
2023/03/16 10:47:02;;;;;;;4.60;3.10;;;9.50;46.30;;;;;;5009122;28;20450;-56
2023/03/16 10:49:40;;;;;;;4.20;3.10;;;9.60;45.20;;;;;;5004217;28;20826;-59
2023/03/16 10:52:37;;;;;;;3.93;3.13;;;9.60;44.20;;;;;;4999657;28;20447;-58
2023/03/16 10:55:32;;;;;;;3.77;3.10;;;9.60;43.60;;;;;;5003819;28;21026;-55
2023/03/16 10:57:58;;;;;;;3.37;3.07;;;9.70;45.30;;;;;;4993761;28;20475;-55
2023/03/16 11:00:35;;;;;;;3.80;2.80;;;9.80;45.30;;;;;;5006387;28;20494;-55
2023/03/16 11:03:11;;;;;;;4.83;3.37;;;9.90;43.80;;;;;;5004238;28;20274;-55
2023/03/16 11:05:38;;;;;;;3.80;3.20;;;10.00;43.90;;;;;;4993354;28;20885;-57
2023/03/16 11:08:10;;;;;;;6.57;3.17;;;10.10;44.40;;;;;;5002712;28;20451;-54
2023/03/16 11:10:53;;;;;;;9.60;4.13;;;10.10;44.30;;;;;;5004133;28;20958;-55
2023/03/16 11:13:20;;;;;;;6.03;3.27;;;10.20;44.20;;;;;;5003034;28;21104;-57
2023/03/16 11:15:56;;;;;;;5.80;3.30;;;10.30;44.20;;;;;;5004080;28;20450;-60
2023/03/16 11:18:29;;;;;;;5.17;3.63;;;10.50;44.20;;;;;;4986021;28;20447;-56
2023/03/16 11:20:57;;;;;;;7.67;3.93;;;10.60;42.70;;;;;;4998527;28;20431;-54
2023/03/16 11:23:48;;;;;;;4.10;3.60;;;10.80;42.20;;;;;;4986162;28;20438;-56
2023/03/16 11:26:38;;;;;;;3.83;3.50;;;10.90;42.20;;;;;;4992524;28;20510;-53
2023/03/16 11:29:17;;;;;;;5.10;3.80;;;11.10;41.70;;;;;;5001621;28;20434;-57
2023/03/16 11:31:59;;;;;;;4.80;3.90;;;11.20;41.50;;;;;;4998578;28;20478;-57
2023/03/16 11:34:30;;;;;;;5.60;3.50;;;11.40;42.60;;;;;;4997013;28;20453;-57
2023/03/16 11:37:28;;;;;;;6.37;3.53;;;11.70;43.40;;;;;;4996504;28;20442;-52
2023/03/16 11:40:08;;;;;;;4.47;2.90;;;12.00;42.80;;;;;;4988476;28;20475;-51
2023/03/16 11:42:40;;;;;;;4.17;3.57;;;12.30;43.30;;;;;;5001837;28;22221;-50
2023/03/16 11:45:31;;;;;;;4.23;3.50;;;12.60;42.30;;;;;;4997656;28;20432;-55
2023/03/16 11:48:02;;;;;;;3.17;2.87;;;12.90;40.80;;;;;;5005695;28;21066;-53
2023/03/16 11:50:48;;;;;;;2.60;2.30;;;12.90;36.80;;;;;;5003977;28;20486;-53
2023/03/16 11:53:33;;;;;;;6.63;2.67;;;13.00;35.80;;;;;;5006033;28;20450;-52
2023/03/16 11:56:10;;;;;;;3.47;2.63;;;13.10;38.10;;;;;;5006400;28;20427;-52
2023/03/16 11:58:58;;;;;;;3.33;2.60;;;13.30;36.20;;;;;;4995346;28;20459;-54
2023/03/16 12:01:38;;;;;;;3.53;3.20;;;13.10;37.10;;;;;;4993694;28;20994;-58
2023/03/16 12:04:43;;;;;;;4.97;2.90;;;12.70;35.40;;;;;;5004361;28;20465;-55
2023/03/16 12:07:38;;;;;;;2.40;2.20;;;12.70;36.20;;;;;;4944611;28;20535;-58
2023/03/16 12:10:09;;;;;;;4.10;2.60;;;13.00;37.20;;;;;;4993347;28;20984;-60
2023/03/16 12:12:55;;;;;;;3.77;2.80;;;13.20;35.20;;;;;;4990862;28;20478;-57
2023/03/16 12:15:33;;;;;;;4.20;2.90;;;13.40;37.60;;;;;;4992039;28;20440;-57
2023/03/16 12:18:08;;;;;;;2.80;2.50;;;13.90;39.00;;;;;;4991030;28;20867;-59
2023/03/16 12:20:46;;;;;;;4.20;2.43;;;14.10;36.00;;;;;;5003101;28;20461;-57
2023/03/16 12:23:21;;;;;;;6.10;2.37;;;13.90;34.20;;;;;;5008322;28;20465;-56
2023/03/16 12:25:49;;;;;;;2.70;2.27;;;13.70;33.80;;;;;;5006721;28;20445;-58
2023/03/16 12:28:22;;;;;;;6.10;2.80;;;13.40;34.50;;;;;;5005493;28;20427;-58
2023/03/16 12:31:02;;;;;;;2.87;2.63;;;13.20;35.70;;;;;;5000072;28;20493;-59
2023/03/16 12:33:34;;;;;;;3.37;2.97;;;13.30;35.90;;;;;;5005038;28;20438;-57
2023/03/16 12:36:18;;;;;;;3.40;2.37;;;13.40;36.60;;;;;;4998265;28;20530;-58
2023/03/16 12:39:04;;;;;;;4.30;1.73;;;13.50;36.30;;;;;;5001669;28;20471;-58
2023/03/16 12:41:47;;;;;;;2.83;2.00;;;13.70;35.90;;;;;;5008854;28;20444;-56
2023/03/16 12:44:21;;;;;;;2.77;2.30;;;13.80;34.10;;;;;;4996610;28;20490;-57
2023/03/16 12:47:12;;;;;;;2.40;2.20;;;13.90;32.80;;;;;;5004149;28;20427;-56
2023/03/16 12:49:38;;;;;;;3.67;2.30;;;14.10;33.20;;;;;;5006116;28;20420;-56
2023/03/16 12:52:11;;;;;;;2.33;1.83;;;14.20;33.00;;;;;;5009510;28;20866;-58
2023/03/16 12:54:51;;;;;;;2.07;1.87;;;14.40;32.60;;;;;;5003656;28;20423;-56
2023/03/16 12:57:19;;;;;;;2.10;1.63;;;14.50;30.70;;;;;;5010083;28;20482;-57
2023/03/16 12:59:49;;;;;;;1.90;1.50;;;14.50;29.40;;;;;;5007411;28;20550;-56